Startpagina
METAR-TAF:

METAR-TAF

Vliegvelden :

Internationale luchthaven Changi

Singapore, Singapore

breedte: 01-22N, lengte: 103-59E, hoogte: 5 m

Actueel weer

Dit bericht is 38 minuten geleden gemaakt, om 03:00 UTC
Wind 4 kt uit het oostzuidoosten, variërend tussen het noorden en het zuidzuidoosten
Temperatuur 31°C
Vochtigheid 71%
Druk 1012 hPa
Zicht 10 km of meer
Weinig wolken op 1800 ft
Gebroken wolken op 30000 ft

METAR: WSSS 130300Z 12004KT 010V160 9999 FEW018 BKN300 31/25 Q1012 NOSIG

Tijdstip: 11:38 (03:38 UTC)

Verwachting

Dit bericht is 4 uur en het 38 minuten geleden gemaakt, om 23:00 UTC
Verwachting geldig van 13 om 00 UTC tot 14 om 06 UTC
Wind 7 kt uit het zuiden
Zicht 10 km of meer
Weinig wolken op 1500 ft
Verspreide wolken op 2000 ft
Tijdelijke
van 13 om 07 UTC tot 13 om 10 UTC
Zicht: 3000 m
Weinig wolken op 1200 ft, Cumulonimbus.
Gebroken wolken op 1500 ft
onweer, regen,

TAF: WSSS 122300Z 1300/1406 19007KT 9999 FEW015 SCT020 TEMPO 1307/1310 3000 TSRA FEW012CB BKN015

Waarnemingen en weersverwachtingen van meer dan 4000 vliegvelden (METAR en TAF).

De beschikbare stations zijn de gele en rode punten op de kaart.

Ga met uw muis naar het station om de naam te zien.

Klik dan om waarnemingen en weersverwachtingen te zien.

kaart wijzigen: klik op de groene knoppen met een zwart kruis om in te zoomen, op de groene knop met een streepje om uit te zoomen of op de groene pijlen voor aangrenzende kaarten.


METAR-TAF: